Aérodrome :
LOGIN :

S'inscrire | Disclaimer

   EN    FR    IT 

 










Légende :    VFR   VFR Marginal   IFR   IFR Intensif   IFR Très Intensif
Visi : 
Plafond : 
>= 8 km
>= 3000ft
5 à 8 km
1000 à 3000 ft
1500m à 5 km
500 à 1000 ft
800 à 1500m
200 à 500 ft
< 800m
< 200 ft
Symboles :   Orages  Brouillard  Fortes neiges  Fortes précipitations  Vent > 20 kt
SIGMETs :   Divers  Orages  Givrage  Turbulence  Onde Orograph.  Cendres Volcan.







- Altitude de l'aérodrome : 0 ft


ETEB - Ansbach Army Heliport

DERNIER METAR :
  • 201418Z AUTO 02005KT 9999 FEW031 SCT050 BKN070 13/07 A3015 RMK AO2 RAB09E18 SLP224

METARs EXPIRÉS :
  • 201409Z AUTO 31005KT 9999 -RA FEW031 SCT040 BKN050 BKN070 14/06 A3015 RMK AO2 RAB09 SLP224
  • 201358Z AUTO 27007KT 9999 SCT031 SCT040 BKN060 15/07 A3015 RMK AO2 SLP222 T01460070 $
  • 201258Z AUTO 27004KT 9999 FEW120 15/07 A3015 RMK AO2 SLP222 T01480072 $
  • 201223Z AUTO 32005KT 9999 SCT030 BKN120 14/06 A3015 RMK AO2 SLP224 $
  • 201158Z AUTO 29007KT 9999 BKN028 15/07 A3016 RMK AO2 CIG 026V085 SLP228 T01450070 10145 20094 58004 $
  • 201153Z AUTO 27009KT 9999 SCT026 BKN085 14/07 A3016 RMK AO2 SLP228 $

TAF TAF ETEB
Valide du 20 à 13h jusqu'au 21 à 19h UTC


201308Z 2013/2119 30009KT 9999 SCT020 BKN050 610509 QNH3015INS
BECMG 2100/2101 VRB06KT 5000 BR BKN015 QNH3018INS
TEMPO 2101/2105 BKN012
BECMG 2105/2106 32009KT 9999 NSW SCT050 QNH3020INS TX15/2113Z TN06/2105Z
Pas de NOTAMs connus pour ce terrain.



MET'MAP, la Météo Aéronautique d'un coup d'oeil ! - Copyright ORBIFLY Décembre 2007 - Disclaimer

ORBIFLY MET'MAP TEAM :

Programmation & Développement : Alexandra Zaïnal
Conception & Développement : Baudouin d'Aumeries
Co-Programmation & Développement : Marc-Olivier Méhu
Soutien technique & logistique : Manuel Goepfert

Contact : metmap@orbifly.com




SOURCES & CREDITS :

   NOAA